Aérodrome :
LOGIN :

S'inscrire | Disclaimer

   EN    FR    IT 

 










Légende :    VFR   VFR Marginal   IFR   IFR Intensif   IFR Très Intensif
Visi : 
Plafond : 
>= 8 km
>= 3000ft
5 à 8 km
1000 à 3000 ft
1500m à 5 km
500 à 1000 ft
800 à 1500m
200 à 500 ft
< 800m
< 200 ft
Symboles :   Orages  Brouillard  Fortes neiges  Fortes précipitations  Vent > 20 kt
SIGMETs :   Divers  Orages  Givrage  Turbulence  Onde Orograph.  Cendres Volcan.






- Altitude de l'aérodrome : 885 ft
- Code IATA : BAS


LFSB - Bale-Mulhouse

DERNIER METAR :
  • 171230Z 29006KT 4500 -SNRA BR BKN005 OVC008 02/02 Q1005 TEMPO 2000 -SN BR OVC003

METARs EXPIRÉS :
  • 171200Z 30004KT 270V340 5000 -RA BR BKN005 OVC006 02/02 Q1005 BECMG -RASN BR
  • 171130Z VRB02KT 4200 -RA BR OVC003 02/02 Q1005 BECMG -RASN BR
  • 171100Z 30004KT 250V340 3500 -RA BR OVC004 02/02 Q1005 BECMG -RASN BR
  • 171030Z 34004KT 310V010 3300 -RA BR OVC003 02/02 Q1005 BECMG -RASN BR
  • 171000Z 32008KT 1500 -RA BR SCT000 OVC001 02/02 Q1005 BECMG 2000 -RASN BR OVC003
  • 170930Z 33008KT 0750 R15/1500U R33/0900U -RA FG VV/// 02/02 Q1006 BECMG 2000 -RASN BR OVC003

TAF AMD TAF LFSB
Valide du 17 à 12h jusqu'au 18 à 12h UTC


171216Z 1712/1812 30005KT 4500 -RASN BR OVC005
TEMPO 1712/1716 2000 -SN BR OVC003
PROB30
TEMPO 1712/1715 1000 SN VV///
BECMG 1716/1718 7000 -RA OVC015
BECMG 1719/1722 9999 NSW OVC020
TEMPO 1716/1808 BKN008
TEMPO 1722/1810 -RA
BECMG 1806/1808 24010KT
Météo : +33 3 89 90 31 11



MET'MAP, la Météo Aéronautique d'un coup d'oeil ! - Copyright ORBIFLY Décembre 2007 - Disclaimer

ORBIFLY MET'MAP TEAM :

Programmation & Développement : Alexandra Zaïnal
Conception & Développement : Baudouin d'Aumeries
Co-Programmation & Développement : Marc-Olivier Méhu
Soutien technique & logistique : Manuel Goepfert

Contact : metmap@orbifly.com




SOURCES & CREDITS :

   NOAA